El Vergel, Argentina
Current Conditions -  °F | °C
As of 12:00 AM on Wednesday 26 Nov 2014 (Local Time) from SAME Reporting Station
Thunderstorm Thunderstorm  
Wind Chill: 72°   Ceiling: Unl
Heat Index: 72°   Visibility: 6mi
Dew Point: 34°   Wind: 5mph
Humidity: 25%   Direction: 180°S
Pressure: 29.88"   Gusts: NA
Location:  32.75°S, 68.6°W
Report Text: SAME 260300Z 18004KT 9999 VCTS FEW040FEW045CB 22/01 Q1012
Loading
Personal Weather Stations






























Interactive Weather Map New forecast layout! Learn more

10-Day Weather Forecast

Advertisements
Track Severe Weather on mobile